Time;durP1;ratioP1;P1;durP2;ratioP2;P2;SDS_P1;SDS_P2;PMS_P1;PMS_P2;Temp;Humidity;BMP_temperature;BMP_pressure;BME280_temperature;BME280_humidity;BME280_pressure;Samples;Min_cycle;Max_cycle;Signal;HPM_P1;HPM_P2
2022/08/25 00:01:36;;;;;;;;;;;;;;;;;;4936182;29;19930;-76
2022/08/25 00:04:04;;;;;;;;;;;;;;;;;;4933071;29;20410;-76
2022/08/25 00:06:31;;;;;;;;;;;;;;;;;;4931490;29;19930;-76
2022/08/25 00:08:58;;;;;;;;;;;;;;;;;;4931580;29;20280;-76
2022/08/25 00:11:26;;;;;;;;;;;;;;;;;;4935181;29;20025;-76
2022/08/25 00:13:53;;;;;;;;;;;;;;;;;;4918717;29;20278;-76
2022/08/25 00:16:20;;;;;;;;;;;;;;;;;;4937128;29;20437;-76
2022/08/25 00:18:48;;;;;;;;;;;;;;;;;;4932824;29;19930;-76
2022/08/25 00:21:15;;;;;;;;;;;;;;;;;;4934362;29;19937;-77
2022/08/25 00:23:42;;;;;;;;;;;;;;;;;;4938004;29;20592;-76
2022/08/25 00:26:09;;;;;;;;;;;;;;;;;;4938451;29;19961;-77
2022/08/25 00:28:37;;;;;;;;;;;;;;;;;;4938629;29;19994;-76
2022/08/25 00:31:04;;;;;;;;;;;;;;;;;;4939878;29;19958;-76
2022/08/25 00:33:31;;;;;;;;;;;;;;;;;;4936443;29;19926;-76
2022/08/25 00:35:59;;;;;;;;;;;;;;;;;;4933705;29;19962;-76
2022/08/25 00:38:26;;;;;;;;;;;;;;;;;;4934898;29;19930;-76
2022/08/25 00:41:06;;;;;;;;;;;;;;;;;;4936236;29;19981;-76
2022/08/25 00:43:33;;;;;;;;;;;;;;;;;;4935446;29;20009;-76
2022/08/25 00:46:01;;;;;;;;;;;;;;;;;;4919396;29;19955;-77
2022/08/25 00:48:29;;;;;;;;;;;;;;;;;;4934396;29;19931;-76
2022/08/25 00:50:56;;;;;;;;;;;;;;;;;;4937447;29;19927;-76
2022/08/25 00:53:23;;;;;;;;;;;;;;;;;;4931480;28;20025;-76
2022/08/25 00:55:50;;;;;;;;;;;;;;;;;;4929400;29;20387;-76
2022/08/25 00:58:18;;;;;;;;;;;;;;;;;;4933686;29;19954;-77
2022/08/25 01:00:45;;;;;;;;;;;;;;;;;;4932157;29;19931;-76
2022/08/25 01:03:12;;;;;;;;;;;;;;;;;;4935774;29;19926;-77
2022/08/25 01:05:40;;;;;;;;;;;;;;;;;;4930326;29;20477;-76
2022/08/25 01:08:07;;;;;;;;;;;;;;;;;;4934886;29;19926;-76
2022/08/25 01:10:34;;;;;;;;;;;;;;;;;;4931874;29;19927;-76
2022/08/25 01:13:02;;;;;;;;;;;;;;;;;;4934614;29;20312;-76
2022/08/25 01:15:29;;;;;;;;;;;;;;;;;;4915090;29;20507;-76
2022/08/25 01:17:56;;;;;;;;;;;;;;;;;;4934900;29;20446;-76
2022/08/25 01:20:24;;;;;;;;;;;;;;;;;;4933989;29;20414;-76
2022/08/25 01:22:56;;;;;;;;;;;;;;;;;;4929900;29;19938;-76
2022/08/25 01:25:23;;;;;;;;;;;;;;;;;;4935915;29;20478;-76
2022/08/25 01:27:52;;;;;;;;;;;;;;;;;;4939218;23;19937;-85
2022/08/25 01:30:28;;;;;;;;;;;;;;;;;;4915978;29;19956;-85
2022/08/25 01:33:11;;;;;;;;;;;;;;;;;;4929650;29;19978;-85
2022/08/25 01:36:12;;;;;;;;;;;;;;;;;;;;;
2022/08/25 01:39:01;;;;;;;;;;;;;;;;;;4931434;29;20394;-85
2022/08/25 01:42:22;;;;;;;;;;;;;;;;;;4877295;29;19930;-86
2022/08/25 01:45:51;;;;;;;;;;;;;;;;;;4912807;29;19938;-85
2022/08/25 01:48:44;;;;;;;;;;;;;;;;;;4930318;29;20025;-85
2022/08/25 01:54:37;;;;;;;;;;;;;;;;;;4929264;29;19934;-85
2022/08/25 01:57:33;;;;;;;;;;;;;;;;;;4894322;29;19926;-85
2022/08/25 02:00:22;;;;;;;;;;;;;;;;;;;;;
2022/08/25 02:06:06;;;;;;;;;;;;;;;;;;4927523;29;19931;-85
2022/08/25 02:08:48;;;;;;;;;;;;;;;;;;4930587;29;20449;-85
2022/08/25 02:11:20;;;;;;;;;;;;;;;;;;4931514;29;19931;-86
2022/08/25 02:14:16;;;;;;;;;;;;;;;;;;4916049;29;19931;-86
2022/08/25 02:16:47;;;;;;;;;;;;;;;;;;4931147;29;20294;-85
2022/08/25 02:19:23;;;;;;;;;;;;;;;;;;4929321;29;19931;-85
2022/08/25 02:21:53;;;;;;;;;;;;;;;;;;4928805;29;19935;-85
2022/08/25 02:24:26;;;;;;;;;;;;;;;;;;4931272;29;19931;-85
2022/08/25 02:27:02;;;;;;;;;;;;;;;;;;4931068;29;19934;-85
2022/08/25 02:29:39;;;;;;;;;;;;;;;;;;4930337;29;19927;-85
2022/08/25 02:32:21;;;;;;;;;;;;;;;;;;4932048;29;19978;-85
2022/08/25 02:34:52;;;;;;;;;;;;;;;;;;4932006;29;19963;-85
2022/08/25 02:37:35;;;;;;;;;;;;;;;;;;4930187;29;19930;-85
2022/08/25 02:40:29;;;;;;;;;;;;;;;;;;4918609;29;19935;-85
2022/08/25 02:42:56;;;;;;;;;;;;;;;;;;4917346;29;19931;-85
2022/08/25 02:45:40;;;;;;;;;;;;;;;;;;4930295;29;19927;-85
2022/08/25 02:48:11;;;;;;;;;;;;;;;;;;4931208;29;20007;-85
2022/08/25 02:50:59;;;;;;;;;;;;;;;;;;4929348;29;19977;-85
2022/08/25 02:53:49;;;;;;;;;;;;;;;;;;4914862;29;20009;-85
2022/08/25 02:56:30;;;;;;;;;;;;;;;;;;4913792;29;20276;-85
2022/08/25 02:59:09;;;;;;;;;;;;;;;;;;4929264;29;20009;-85
2022/08/25 03:01:44;;;;;;;;;;;;;;;;;;4931278;29;19937;-85
2022/08/25 03:04:19;;;;;;;;;;;;;;;;;;4930870;29;19927;-85
2022/08/25 03:06:52;;;;;;;;;;;;;;;;;;4930422;29;19935;-85
2022/08/25 03:09:52;;;;;;;;;;;;;;;;;;4930780;29;19985;-84
2022/08/25 03:12:23;;;;;;;;;;;;;;;;;;4931140;29;19974;-85
2022/08/25 03:14:53;;;;;;;;;;;;;;;;;;4930447;29;19930;-85
2022/08/25 03:17:24;;;;;;;;;;;;;;;;;;4930604;29;20411;-85
2022/08/25 03:20:22;;;;;;;;;;;;;;;;;;4920340;29;20077;-84
2022/08/25 03:23:13;;;;;;;;;;;;;;;;;;4926905;29;20037;-85
2022/08/25 03:28:34;;;;;;;;;;;;;;;;;;4931550;29;19931;-85
2022/08/25 03:31:07;;;;;;;;;;;;;;;;;;4917467;29;19926;-84
2022/08/25 03:33:43;;;;;;;;;;;;;;;;;;4918042;29;19930;-84
2022/08/25 03:36:30;;;;;;;;;;;;;;;;;;4933971;29;19993;-85
2022/08/25 03:39:07;;;;;;;;;;;;;;;;;;4930388;29;19926;-85
2022/08/25 03:42:20;;;;;;;;;;;;;;;;;;4913912;29;19973;-85
2022/08/25 03:45:31;;;;;;;;;;;;;;;;;;4919795;29;20029;-86
2022/08/25 03:52:04;;;;;;;;;;;;;;;;;;4861914;29;20544;-85
2022/08/25 03:54:43;;;;;;;;;;;;;;;;;;4892240;29;19938;-85
2022/08/25 03:57:19;;;;;;;;;;;;;;;;;;4893439;29;19935;-86
2022/08/25 03:59:47;;;;;;;;;;;;;;;;;;4890983;29;20362;-85
2022/08/25 04:02:27;;;;;;;;;;;;;;;;;;4859244;29;19936;-85
2022/08/25 04:05:03;;;;;;;;;;;;;;;;;;4889071;29;19982;-85
2022/08/25 04:07:30;;;;;;;;;;;;;;;;;;4892631;29;20368;-85
2022/08/25 04:09:59;;;;;;;;;;;;;;;;;;4878984;29;19932;-85
2022/08/25 04:12:29;;;;;;;;;;;;;;;;;;4896312;29;19938;-85
2022/08/25 04:15:16;;;;;;;;;;;;;;;;;;4880959;29;20375;-85
2022/08/25 04:17:44;;;;;;;;;;;;;;;;;;4896150;29;19937;-86
2022/08/25 04:20:17;;;;;;;;;;;;;;;;;;4882450;29;19936;-85
2022/08/25 04:22:48;;;;;;;;;;;;;;;;;;4887569;29;19935;-86
2022/08/25 04:25:49;;;;;;;;;;;;;;;;;;4852643;29;19932;-86
2022/08/25 04:28:28;;;;;;;;;;;;;;;;;;4869163;29;20043;-86
2022/08/25 04:31:45;;;;;;;;;;;;;;;;;;4841932;29;20464;-86
2022/08/25 04:34:17;;;;;;;;;;;;;;;;;;4836427;29;19929;-86
2022/08/25 04:36:57;;;;;;;;;;;;;;;;;;4838914;29;20479;-86
2022/08/25 04:40:00;;;;;;;;;;;;;;;;;;4832708;29;19932;-86
2022/08/25 04:42:43;;;;;;;;;;;;;;;;;;4837482;29;19973;-84
2022/08/25 04:45:26;;;;;;;;;;;;;;;;;;4849729;29;20030;-85
2022/08/25 04:52:10;;;;;;;;;;;;;;;;;;4830329;29;20421;-85
2022/08/25 04:54:43;;;;;;;;;;;;;;;;;;4870750;29;19931;-84
2022/08/25 04:57:23;;;;;;;;;;;;;;;;;;4913451;29;20049;-85
2022/08/25 05:00:09;;;;;;;;;;;;;;;;;;;;;
2022/08/25 05:03:14;;;;;;;;;;;;;;;;;;4818748;29;19932;-85
2022/08/25 05:05:58;;;;;;;;;;;;;;;;;;4833592;29;19960;-85
2022/08/25 05:09:13;;;;;;;;;;;;;;;;;;;;;
2022/08/25 05:12:19;;;;;;;;;;;;;;;;;;4833272;29;20495;-86
2022/08/25 05:18:49;;;;;;;;;;;;;;;;;;4738674;30;19941;-86
2022/08/25 05:21:23;;;;;;;;;;;;;;;;;;4820566;29;20020;-86
2022/08/25 05:24:00;;;;;;;;;;;;;;;;;;4821826;29;19933;-85
2022/08/25 05:27:17;;;;;;;;;;;;;;;;;;4817873;29;20404;-86
2022/08/25 05:30:15;;;;;;;;;;;;;;;;;;;;;
2022/08/25 05:32:46;;;;;;;;;;;;;;;;;;4834275;29;21396;-85
2022/08/25 05:35:25;;;;;;;;;;;;;;;;;;4848205;29;19942;-85
2022/08/25 05:38:09;;;;;;;;;;;;;;;;;;;;;
2022/08/25 05:41:32;;;;;;;;;;;;;;;;;;4929737;29;20009;-85
2022/08/25 05:44:02;;;;;;;;;;;;;;;;;;4913842;29;19983;-85
2022/08/25 05:46:35;;;;;;;;;;;;;;;;;;4933958;29;19934;-85
2022/08/25 05:49:02;;;;;;;;;;;;;;;;;;4930827;29;20075;-85
2022/08/25 05:51:33;;;;;;;;;;;;;;;;;;4931809;29;19931;-88
2022/08/25 05:54:00;;;;;;;;;;;;;;;;;;4930293;29;19931;-85
2022/08/25 05:56:28;;;;;;;;;;;;;;;;;;4928600;29;20037;-85
2022/08/25 05:58:55;;;;;;;;;;;;;;;;;;4935775;29;19990;-85
2022/08/25 06:04:26;;;;;;;;;;;;;;;;;;4922597;29;19962;-84
2022/08/25 06:07:03;;;;;;;;;;;;;;;;;;4928917;29;20474;-85
2022/08/25 06:09:44;;;;;;;;;;;;;;;;;;4930068;29;20565;-85
2022/08/25 06:12:13;;;;;;;;;;;;;;;;;;4929260;29;20026;-85
2022/08/25 06:15:02;;;;;;;;;;;;;;;;;;4915349;29;19938;-85
2022/08/25 06:17:29;;;;;;;;;;;;;;;;;;4928685;29;20021;-85
2022/08/25 06:20:13;;;;;;;;;;;;;;;;;;4927710;29;20046;-85
2022/08/25 06:22:42;;;;;;;;;;;;;;;;;;4921994;29;19935;-85
2022/08/25 06:25:12;;;;;;;;;;;;;;;;;;4928802;29;20410;-85
2022/08/25 06:27:40;;;;;;;;;;;;;;;;;;5033654;23;20347;-72
2022/08/25 06:30:07;;;;;;;;;;;;;;;;;;4926357;29;20466;-72
2022/08/25 06:32:38;;;;;;;;;;;;;;;;;;4928383;29;20301;-73
2022/08/25 06:35:05;;;;;;;;;;;;;;;;;;4927522;29;20307;-72
2022/08/25 06:37:32;;;;;;;;;;;;;;;;;;4927979;29;19937;-73
2022/08/25 06:39:59;;;;;;;;;;;;;;;;;;4928736;29;19974;-72
2022/08/25 06:42:27;;;;;;;;;;;;;;;;;;4928959;29;20474;-72
2022/08/25 06:44:54;;;;;;;;;;;;;;;;;;4928537;29;20382;-72
2022/08/25 06:47:21;;;;;;;;;;;;;;;;;;4928032;29;20017;-73
2022/08/25 06:49:49;;;;;;;;;;;;;;;;;;4928558;29;20399;-72
2022/08/25 06:52:16;;;;;;;;;;;;;;;;;;4928998;29;19933;-72
2022/08/25 06:54:43;;;;;;;;;;;;;;;;;;4928696;29;20054;-72
2022/08/25 06:57:10;;;;;;;;;;;;;;;;;;4928119;29;20021;-72
2022/08/25 06:59:38;;;;;;;;;;;;;;;;;;4928585;29;19938;-72
2022/08/25 07:02:07;;;;;;;;;;;;;;;;;;4928545;29;19946;-72
2022/08/25 07:04:35;;;;;;;;;;;;;;;;;;4928303;29;19931;-72
2022/08/25 07:07:02;;;;;;;;;;;;;;;;;;4928612;29;19990;-73
2022/08/25 07:09:30;;;;;;;;;;;;;;;;;;4927246;29;20401;-72
2022/08/25 07:11:57;;;;;;;;;;;;;;;;;;4928860;29;20446;-72
2022/08/25 07:14:25;;;;;;;;;;;;;;;;;;4928577;29;20009;-72
2022/08/25 07:16:52;;;;;;;;;;;;;;;;;;4926805;29;20399;-73
2022/08/25 07:19:19;;;;;;;;;;;;;;;;;;4928161;29;19927;-72
2022/08/25 07:21:47;;;;;;;;;;;;;;;;;;4927162;29;20029;-72
2022/08/25 07:24:15;;;;;;;;;;;;;;;;;;4927593;29;20018;-73
2022/08/25 07:26:42;;;;;;;;;;;;;;;;;;4928244;29;19930;-72
2022/08/25 07:29:09;;;;;;;;;;;;;;;;;;4927998;29;19974;-73
2022/08/25 07:31:36;;;;;;;;;;;;;;;;;;4928132;29;20391;-72
2022/08/25 07:36:51;;;;;;;;;;;;;;;;;;4927802;29;19926;-73
2022/08/25 07:39:18;;;;;;;;;;;;;;;;;;4928084;29;20315;-73
2022/08/25 07:41:48;;;;;;;;;;;;;;;;;;4928427;29;19961;-72
2022/08/25 07:44:18;;;;;;;;;;;;;;;;;;4928231;29;19930;-73
2022/08/25 07:46:45;;;;;;;;;;;;;;;;;;4927828;29;20411;-73
2022/08/25 07:49:12;;;;;;;;;;;;;;;;;;4928234;29;19938;-73
2022/08/25 07:51:43;;;;;;;;;;;;;;;;;;4928503;29;20013;-73
2022/08/25 07:54:30;;;;;;;;;;;;;;;;;;4927936;29;20315;-73
2022/08/25 07:57:00;;;;;;;;;;;;;;;;;;4911233;29;20030;-73
2022/08/25 07:59:28;;;;;;;;;;;;;;;;;;4927765;29;19934;-73
2022/08/25 08:01:55;;;;;;;;;;;;;;;;;;4928448;29;20013;-73
2022/08/25 08:04:22;;;;;;;;;;;;;;;;;;4929881;29;20353;-73
2022/08/25 08:06:49;;;;;;;;;;;;;;;;;;4931074;29;20378;-73
2022/08/25 08:09:17;;;;;;;;;;;;;;;;;;4931383;29;19934;-73
2022/08/25 08:11:44;;;;;;;;;;;;;;;;;;4930579;29;20470;-73
2022/08/25 08:14:20;;;;;;;;;;;;;;;;;;4930630;29;19938;-73
2022/08/25 08:16:48;;;;;;;;;;;;;;;;;;4930923;29;19935;-73
2022/08/25 08:19:15;;;;;;;;;;;;;;;;;;4931318;29;19930;-73
2022/08/25 08:21:43;;;;;;;;;;;;;;;;;;4931388;29;19959;-73
2022/08/25 08:24:10;;;;;;;;;;;;;;;;;;4931165;29;20030;-73
2022/08/25 08:26:57;;;;;;;;;;;;;;;;;;4930993;29;19930;-73
2022/08/25 08:29:25;;;;;;;;;;;;;;;;;;4930692;29;20021;-73
2022/08/25 08:31:52;;;;;;;;;;;;;;;;;;4930184;29;20356;-73
2022/08/25 08:34:22;;;;;;;;;;;;;;;;;;4914364;29;20013;-73
2022/08/25 08:36:51;;;;;;;;;;;;;;;;;;4930758;29;19938;-73
2022/08/25 08:39:18;;;;;;;;;;;;;;;;;;4930911;29;20046;-73
2022/08/25 08:44:38;;;;;;;;;;;;;;;;;;4931220;29;20598;-73
2022/08/25 08:47:05;;;;;;;;;;;;;;;;;;4930386;29;19937;-73
2022/08/25 08:49:35;;;;;;;;;;;;;;;;;;4930467;29;20442;-73
2022/08/25 08:52:02;;;;;;;;;;;;;;;;;;4930914;29;19933;-73
2022/08/25 08:54:30;;;;;;;;;;;;;;;;;;4930575;29;19977;-73
2022/08/25 08:56:57;;;;;;;;;;;;;;;;;;4913135;29;19931;-73
2022/08/25 08:59:24;;;;;;;;;;;;;;;;;;4930537;29;20033;-73
2022/08/25 09:01:58;;;;;;;;;;;;;;;;;;4930664;29;19949;-73
2022/08/25 09:04:26;;;;;;;;;;;;;;;;;;4929880;29;20293;-73
2022/08/25 09:06:54;;;;;;;;;;;;;;;;;;4930829;29;19934;-73
2022/08/25 09:09:21;;;;;;;;;;;;;;;;;;4933603;29;20310;-73
2022/08/25 09:11:48;;;;;;;;;;;;;;;;;;4931917;29;20409;-72
2022/08/25 09:14:16;;;;;;;;;;;;;;;;;;4930261;29;19974;-72
2022/08/25 09:16:55;;;;;;;;;;;;;;;;;;4928815;29;20029;-72
2022/08/25 09:19:22;;;;;;;;;;;;;;;;;;4930411;29;19934;-72
2022/08/25 09:21:50;;;;;;;;;;;;;;;;;;4930433;29;20422;-72
2022/08/25 09:24:17;;;;;;;;;;;;;;;;;;4930389;29;20466;-73
2022/08/25 09:26:44;;;;;;;;;;;;;;;;;;4930255;29;19931;-73
2022/08/25 09:29:11;;;;;;;;;;;;;;;;;;4929830;29;19986;-74
2022/08/25 09:31:43;;;;;;;;;;;;;;;;;;4930759;29;19973;-73
2022/08/25 09:34:10;;;;;;;;;;;;;;;;;;4931078;29;19927;-73
2022/08/25 09:36:37;;;;;;;;;;;;;;;;;;4929705;29;20421;-74
2022/08/25 09:39:05;;;;;;;;;;;;;;;;;;4928472;29;20033;-76
2022/08/25 09:41:33;;;;;;;;;;;;;;;;;;4930044;29;20370;-75
2022/08/25 09:44:00;;;;;;;;;;;;;;;;;;4928076;29;20387;-74
2022/08/25 09:46:27;;;;;;;;;;;;;;;;;;4929511;29;19931;-75
2022/08/25 09:48:54;;;;;;;;;;;;;;;;;;4930012;29;19933;-75
2022/08/25 09:51:24;;;;;;;;;;;;;;;;;;4929664;29;19938;-76
2022/08/25 09:53:51;;;;;;;;;;;;;;;;;;4929513;29;19950;-72
2022/08/25 09:56:18;;;;;;;;;;;;;;;;;;4929391;29;20017;-77
2022/08/25 09:58:45;;;;;;;;;;;;;;;;;;4929219;29;19930;-74
2022/08/25 10:01:13;;;;;;;;;;;;;;;;;;4929397;29;19927;-73
2022/08/25 10:03:40;;;;;;;;;;;;;;;;;;4929753;29;20427;-75
2022/08/25 10:06:07;;;;;;;;;;;;;;;;;;4929208;29;20395;-75
2022/08/25 10:08:39;;;;;;;;;;;;;;;;;;4928995;29;20379;-74
2022/08/25 10:11:07;;;;;;;;;;;;;;;;;;4929505;29;19930;-74
2022/08/25 10:13:35;;;;;;;;;;;;;;;;;;4930057;29;20528;-75
2022/08/25 10:16:02;;;;;;;;;;;;;;;;;;4929939;29;19931;-74
2022/08/25 10:18:29;;;;;;;;;;;;;;;;;;4929587;29;19937;-73
2022/08/25 10:20:56;;;;;;;;;;;;;;;;;;4929078;29;19931;-75
2022/08/25 10:23:24;;;;;;;;;;;;;;;;;;4930029;29;19950;-74
2022/08/25 10:25:52;;;;;;;;;;;;;;;;;;4928410;29;19939;-74
2022/08/25 10:28:23;;;;;;;;;;;;;;;;;;4929445;29;19962;-76
2022/08/25 10:30:50;;;;;;;;;;;;;;;;;;4929194;29;19931;-75
2022/08/25 10:33:18;;;;;;;;;;;;;;;;;;4929232;29;19937;-75
2022/08/25 10:35:45;;;;;;;;;;;;;;;;;;4929061;29;19930;-77
2022/08/25 10:38:12;;;;;;;;;;;;;;;;;;4928606;29;19970;-74
2022/08/25 10:40:39;;;;;;;;;;;;;;;;;;4929299;29;20406;-74
2022/08/25 10:43:07;;;;;;;;;;;;;;;;;;4929223;29;19931;-74
2022/08/25 10:45:44;;;;;;;;;;;;;;;;;;4929273;29;19995;-74
2022/08/25 10:48:12;;;;;;;;;;;;;;;;;;4928292;29;20450;-74
2022/08/25 10:50:39;;;;;;;;;;;;;;;;;;4928715;29;19935;-75
2022/08/25 10:53:06;;;;;;;;;;;;;;;;;;4929080;29;20391;-74
2022/08/25 10:55:34;;;;;;;;;;;;;;;;;;4927514;29;19931;-78
2022/08/25 10:58:01;;;;;;;;;;;;;;;;;;4928758;29;20444;-74
2022/08/25 11:00:29;;;;;;;;;;;;;;;;;;4928170;29;19950;-74
2022/08/25 11:02:57;;;;;;;;;;;;;;;;;;4928736;29;19930;-74
2022/08/25 11:05:25;;;;;;;;;;;;;;;;;;4928455;29;19927;-74
2022/08/25 11:07:52;;;;;;;;;;;;;;;;;;4928592;29;20318;-74
2022/08/25 11:10:19;;;;;;;;;;;;;;;;;;4929364;29;19926;-75
2022/08/25 11:12:47;;;;;;;;;;;;;;;;;;4928612;29;19927;-73
2022/08/25 11:15:14;;;;;;;;;;;;;;;;;;4928605;29;19930;-75
2022/08/25 11:17:41;;;;;;;;;;;;;;;;;;4928584;29;19927;-76
2022/08/25 11:20:11;;;;;;;;;;;;;;;;;;4928255;29;19954;-75
2022/08/25 11:22:42;;;;;;;;;;;;;;;;;;4928834;29;20417;-78
2022/08/25 11:25:09;;;;;;;;;;;;;;;;;;4928372;29;20026;-74
2022/08/25 11:27:37;;;;;;;;;;;;;;;;;;4928002;29;19978;-73
2022/08/25 11:30:05;;;;;;;;;;;;;;;;;;4928485;29;19931;-74
2022/08/25 11:32:34;;;;;;;;;;;;;;;;;;4928894;29;20348;-75
2022/08/25 11:35:01;;;;;;;;;;;;;;;;;;4927328;29;20037;-74
2022/08/25 11:37:29;;;;;;;;;;;;;;;;;;4928396;29;19977;-74
2022/08/25 11:39:56;;;;;;;;;;;;;;;;;;4931786;29;19937;-73
2022/08/25 11:42:23;;;;;;;;;;;;;;;;;;4932631;29;20252;-75
2022/08/25 11:44:51;;;;;;;;;;;;;;;;;;4931908;29;19930;-76
2022/08/25 11:47:20;;;;;;;;;;;;;;;;;;4931406;29;19967;-74
2022/08/25 11:49:47;;;;;;;;;;;;;;;;;;4931391;29;20462;-75
2022/08/25 11:52:15;;;;;;;;;;;;;;;;;;4931340;29;20395;-73
2022/08/25 11:54:42;;;;;;;;;;;;;;;;;;4931055;29;19931;-75
2022/08/25 11:57:09;;;;;;;;;;;;;;;;;;4931127;29;19930;-76
2022/08/25 11:59:36;;;;;;;;;;;;;;;;;;4930133;29;20057;-73
2022/08/25 12:02:04;;;;;;;;;;;;;;;;;;4932002;29;19977;-72
2022/08/25 12:04:32;;;;;;;;;;;;;;;;;;4930967;29;20345;-73
2022/08/25 12:06:59;;;;;;;;;;;;;;;;;;4931142;29;19982;-74
2022/08/25 12:09:27;;;;;;;;;;;;;;;;;;4931812;29;19931;-73
2022/08/25 12:11:54;;;;;;;;;;;;;;;;;;4931086;29;19927;-76
2022/08/25 12:14:21;;;;;;;;;;;;;;;;;;4932332;29;19935;-77
2022/08/25 12:16:49;;;;;;;;;;;;;;;;;;4930786;29;20387;-78
2022/08/25 12:19:16;;;;;;;;;;;;;;;;;;4930328;29;19999;-76
2022/08/25 12:21:43;;;;;;;;;;;;;;;;;;4931989;29;20216;-75
2022/08/25 12:24:11;;;;;;;;;;;;;;;;;;4931798;29;20403;-74
2022/08/25 12:26:39;;;;;;;;;;;;;;;;;;4915225;29;19931;-75
2022/08/25 12:29:06;;;;;;;;;;;;;;;;;;4931659;29;19926;-75
2022/08/25 12:31:33;;;;;;;;;;;;;;;;;;4931733;29;19978;-75
2022/08/25 12:34:01;;;;;;;;;;;;;;;;;;4931820;29;19926;-76
2022/08/25 12:36:29;;;;;;;;;;;;;;;;;;4929844;29;19931;-74
2022/08/25 12:38:57;;;;;;;;;;;;;;;;;;4932893;29;20650;-73
2022/08/25 12:41:24;;;;;;;;;;;;;;;;;;4931257;29;19982;-77
2022/08/25 12:43:51;;;;;;;;;;;;;;;;;;4912949;29;19937;-72
2022/08/25 12:46:19;;;;;;;;;;;;;;;;;;4899370;29;20009;-71
2022/08/25 12:48:46;;;;;;;;;;;;;;;;;;4899903;29;19934;-73
2022/08/25 12:51:13;;;;;;;;;;;;;;;;;;4898127;29;19979;-72
2022/08/25 12:53:40;;;;;;;;;;;;;;;;;;4895896;29;20818;-73
2022/08/25 12:56:08;;;;;;;;;;;;;;;;;;4893657;29;19942;-72
2022/08/25 12:58:35;;;;;;;;;;;;;;;;;;4924156;29;19930;-73
2022/08/25 13:01:23;;;;;;;;;;;;;;;;;;4928475;29;20465;-72
2022/08/25 13:04:02;;;;;;;;;;;;;;;;;;4921342;29;19927;-75
2022/08/25 13:06:29;;;;;;;;;;;;;;;;;;4923782;29;19941;-74
2022/08/25 13:08:57;;;;;;;;;;;;;;;;;;4930127;29;19931;-74
2022/08/25 13:11:24;;;;;;;;;;;;;;;;;;4922864;29;19926;-76
2022/08/25 13:13:51;;;;;;;;;;;;;;;;;;4930268;29;20315;-75
2022/08/25 13:16:19;;;;;;;;;;;;;;;;;;4922946;29;19931;-76
2022/08/25 13:18:46;;;;;;;;;;;;;;;;;;4929165;29;20063;-75
2022/08/25 13:21:17;;;;;;;;;;;;;;;;;;4926334;29;20694;-77
2022/08/25 13:23:44;;;;;;;;;;;;;;;;;;4926203;29;19926;-74
2022/08/25 13:26:12;;;;;;;;;;;;;;;;;;4927036;29;19931;-75
2022/08/25 13:28:41;;;;;;;;;;;;;;;;;;4942411;23;19939;-78
2022/08/25 13:31:08;;;;;;;;;;;;;;;;;;4909005;29;20093;-79
2022/08/25 13:33:35;;;;;;;;;;;;;;;;;;4905537;29;19938;-78
2022/08/25 13:38:49;;;;;;;;;;;;;;;;;;4913016;29;20014;-79
2022/08/25 13:41:16;;;;;;;;;;;;;;;;;;4912134;29;19932;-79
2022/08/25 13:43:44;;;;;;;;;;;;;;;;;;4915063;29;19954;-79
2022/08/25 13:46:11;;;;;;;;;;;;;;;;;;4913904;29;20430;-80
2022/08/25 13:48:41;;;;;;;;;;;;;;;;;;4925276;29;19983;-79
2022/08/25 13:51:16;;;;;;;;;;;;;;;;;;4912886;29;19931;-79
2022/08/25 13:53:43;;;;;;;;;;;;;;;;;;4910658;29;20401;-78
2022/08/25 13:56:12;;;;;;;;;;;;;;;;;;4911628;29;20264;-79
2022/08/25 13:58:39;;;;;;;;;;;;;;;;;;4911147;29;20307;-78
2022/08/25 14:01:12;;;;;;;;;;;;;;;;;;4910832;29;19974;-78
2022/08/25 14:03:49;;;;;;;;;;;;;;;;;;4909988;29;20021;-79
2022/08/25 14:06:16;;;;;;;;;;;;;;;;;;4911388;29;20312;-79
2022/08/25 14:08:43;;;;;;;;;;;;;;;;;;4911417;29;20713;-79
2022/08/25 14:11:10;;;;;;;;;;;;;;;;;;4911411;29;19927;-78
2022/08/25 14:13:40;;;;;;;;;;;;;;;;;;4911562;29;19927;-78
2022/08/25 14:16:09;;;;;;;;;;;;;;;;;;4925610;29;20396;-77
2022/08/25 14:18:37;;;;;;;;;;;;;;;;;;4911478;29;19927;-78
2022/08/25 14:21:06;;;;;;;;;;;;;;;;;;4910995;29;20033;-78
2022/08/25 14:23:33;;;;;;;;;;;;;;;;;;4911854;29;20340;-77
2022/08/25 14:26:00;;;;;;;;;;;;;;;;;;4911293;29;20404;-77
2022/08/25 14:28:29;;;;;;;;;;;;;;;;;;4912727;29;19938;-77
2022/08/25 14:30:57;;;;;;;;;;;;;;;;;;4911550;29;19927;-79
2022/08/25 14:33:24;;;;;;;;;;;;;;;;;;4911876;29;20046;-79
2022/08/25 14:35:51;;;;;;;;;;;;;;;;;;4914365;29;20365;-79
2022/08/25 14:38:21;;;;;;;;;;;;;;;;;;4912960;29;19927;-79
2022/08/25 14:40:52;;;;;;;;;;;;;;;;;;4910982;29;19931;-78
2022/08/25 14:43:19;;;;;;;;;;;;;;;;;;4911427;29;19938;-78
2022/08/25 14:45:49;;;;;;;;;;;;;;;;;;4911113;29;19935;-78
2022/08/25 14:48:17;;;;;;;;;;;;;;;;;;4910120;29;19936;-78
2022/08/25 14:50:44;;;;;;;;;;;;;;;;;;4910294;29;19942;-78
2022/08/25 14:53:11;;;;;;;;;;;;;;;;;;4909358;29;19930;-78
2022/08/25 14:55:39;;;;;;;;;;;;;;;;;;4910103;29;20459;-78
2022/08/25 14:58:06;;;;;;;;;;;;;;;;;;4908797;29;19931;-78
2022/08/25 15:00:33;;;;;;;;;;;;;;;;;;4910572;29;20376;-78
2022/08/25 15:03:01;;;;;;;;;;;;;;;;;;4911317;29;19927;-78
2022/08/25 15:05:30;;;;;;;;;;;;;;;;;;4910359;29;19931;-78
2022/08/25 15:10:45;;;;;;;;;;;;;;;;;;4908616;29;19927;-78
2022/08/25 15:13:13;;;;;;;;;;;;;;;;;;4910621;29;20297;-77
2022/08/25 15:15:41;;;;;;;;;;;;;;;;;;4914287;29;20009;-78
2022/08/25 15:18:18;;;;;;;;;;;;;;;;;;4913878;29;19938;-77
2022/08/25 15:20:46;;;;;;;;;;;;;;;;;;4913889;29;19931;-79
2022/08/25 15:23:16;;;;;;;;;;;;;;;;;;4914081;29;19931;-78
2022/08/25 15:25:43;;;;;;;;;;;;;;;;;;4913522;29;19931;-79
2022/08/25 15:28:11;;;;;;;;;;;;;;;;;;4914152;29;20001;-79
2022/08/25 15:30:49;;;;;;;;;;;;;;;;;;4927452;29;19966;-78
2022/08/25 15:33:16;;;;;;;;;;;;;;;;;;4914337;29;19949;-77
2022/08/25 15:35:43;;;;;;;;;;;;;;;;;;4913626;29;19935;-77
2022/08/25 15:38:11;;;;;;;;;;;;;;;;;;4927452;29;20406;-77
2022/08/25 15:40:38;;;;;;;;;;;;;;;;;;4913534;29;20010;-78
2022/08/25 15:43:05;;;;;;;;;;;;;;;;;;4928038;29;20198;-79
2022/08/25 15:45:34;;;;;;;;;;;;;;;;;;4915059;29;20308;-79
2022/08/25 15:48:02;;;;;;;;;;;;;;;;;;4928645;29;19969;-78
2022/08/25 15:50:29;;;;;;;;;;;;;;;;;;4913524;29;19931;-79
2022/08/25 15:52:56;;;;;;;;;;;;;;;;;;4912575;29;19933;-78
2022/08/25 15:55:24;;;;;;;;;;;;;;;;;;4912102;29;20478;-78
2022/08/25 15:57:51;;;;;;;;;;;;;;;;;;4912921;29;19942;-78
2022/08/25 16:00:18;;;;;;;;;;;;;;;;;;4913338;29;19959;-78
2022/08/25 16:02:46;;;;;;;;;;;;;;;;;;4912989;29;19931;-78
2022/08/25 16:05:13;;;;;;;;;;;;;;;;;;4913370;29;19928;-79
2022/08/25 16:07:44;;;;;;;;;;;;;;;;;;4913526;29;19931;-78
2022/08/25 16:10:12;;;;;;;;;;;;;;;;;;4913971;29;19927;-78
2022/08/25 16:12:39;;;;;;;;;;;;;;;;;;4914406;29;19951;-78
2022/08/25 16:15:08;;;;;;;;;;;;;;;;;;4913707;29;19931;-78
2022/08/25 16:17:38;;;;;;;;;;;;;;;;;;4912898;29;20354;-79
2022/08/25 16:20:07;;;;;;;;;;;;;;;;;;4913680;29;20025;-77
2022/08/25 16:22:34;;;;;;;;;;;;;;;;;;4912197;29;20407;-78
2022/08/25 16:25:04;;;;;;;;;;;;;;;;;;4926448;29;19977;-78
2022/08/25 16:27:31;;;;;;;;;;;;;;;;;;4912243;29;19931;-78
2022/08/25 16:30:05;;;;;;;;;;;;;;;;;;4912663;29;20006;-78
2022/08/25 16:32:32;;;;;;;;;;;;;;;;;;4911271;29;19927;-78
2022/08/25 16:35:00;;;;;;;;;;;;;;;;;;4910634;29;19950;-78
2022/08/25 16:37:27;;;;;;;;;;;;;;;;;;4906199;29;19931;-78
2022/08/25 16:39:54;;;;;;;;;;;;;;;;;;4910682;29;19970;-79
2022/08/25 16:42:21;;;;;;;;;;;;;;;;;;4925470;29;19958;-79
2022/08/25 16:44:49;;;;;;;;;;;;;;;;;;4905525;29;19947;-78
2022/08/25 16:47:16;;;;;;;;;;;;;;;;;;4906369;29;19987;-77
2022/08/25 16:49:46;;;;;;;;;;;;;;;;;;4909328;29;19942;-78
2022/08/25 16:55:16;;;;;;;;;;;;;;;;;;4908699;29;20383;-79
2022/08/25 16:57:44;;;;;;;;;;;;;;;;;;4910053;29;19935;-79
2022/08/25 17:00:12;;;;;;;;;;;;;;;;;;4925555;29;20316;-78
2022/08/25 17:02:39;;;;;;;;;;;;;;;;;;4910326;29;19975;-78
2022/08/25 17:05:07;;;;;;;;;;;;;;;;;;4909368;29;20029;-78
2022/08/25 17:07:34;;;;;;;;;;;;;;;;;;4911702;29;20483;-77
2022/08/25 17:10:01;;;;;;;;;;;;;;;;;;4910617;29;20162;-78
2022/08/25 17:12:28;;;;;;;;;;;;;;;;;;4925265;29;19937;-78
2022/08/25 17:14:56;;;;;;;;;;;;;;;;;;4909777;29;20402;-77
2022/08/25 17:17:23;;;;;;;;;;;;;;;;;;4913105;29;19938;-78
2022/08/25 17:19:51;;;;;;;;;;;;;;;;;;4910588;29;19927;-78
2022/08/25 17:22:21;;;;;;;;;;;;;;;;;;4909943;29;19927;-78
2022/08/25 17:24:48;;;;;;;;;;;;;;;;;;4908878;29;20307;-79
2022/08/25 17:27:25;;;;;;;;;;;;;;;;;;4909686;29;20010;-77
2022/08/25 17:29:53;;;;;;;;;;;;;;;;;;4911154;29;19927;-78
2022/08/25 17:32:21;;;;;;;;;;;;;;;;;;4910515;29;19934;-77
2022/08/25 17:34:48;;;;;;;;;;;;;;;;;;4910213;29;20459;-77
2022/08/25 17:37:16;;;;;;;;;;;;;;;;;;4909653;29;19974;-78
2022/08/25 17:39:43;;;;;;;;;;;;;;;;;;4910769;29;19970;-78
2022/08/25 17:42:10;;;;;;;;;;;;;;;;;;4910556;29;19998;-76
2022/08/25 17:44:37;;;;;;;;;;;;;;;;;;4911094;29;19953;-78
2022/08/25 17:47:05;;;;;;;;;;;;;;;;;;4910451;29;20427;-78
2022/08/25 17:49:32;;;;;;;;;;;;;;;;;;4909250;29;19935;-78
2022/08/25 17:52:00;;;;;;;;;;;;;;;;;;4910006;29;20022;-79
2022/08/25 17:54:28;;;;;;;;;;;;;;;;;;4910694;29;19934;-79
2022/08/25 17:56:55;;;;;;;;;;;;;;;;;;4905232;29;20023;-78